• Join FlightAware (Why Join?)
  • Login
  • US Flag 
01:37PM EDT


 

Airport Tracker/Info


-or-


 

Live Flight TrackerFlight Track Log ✈ CTL15 ✈ 21-May-2013 ✈ KOSU - KMGY

Flight Track Log - Related Links

Times and Time Zones

All times are in EDT time to prevent confusion due to time zone crossing. See the CTL15 flight status page for this flight to view local times or setup timezone preferences in your user account.

Time Position Orientation Groundspeed Altitude Reporting Facility
EDT Latitude Longitude Course Direction KTS MPH feet Rate Location/Type
07:04PM 40.0764 -83.0875 265° West 103 119 1,200  Level Indianapolis Center
07:05PM 40.0739 -83.1228 265° West 105 121 2,200 1,020 Climbing Indianapolis Center
07:06PM 40.0733 -83.1428 268° West 104 120 2,700 960 Climbing Indianapolis Center
07:06PM 40.0708 -83.1658 262° West 110 127 3,200 840 Climbing Indianapolis Center
07:07PM 40.0636 -83.1794 235° Southwest 111 128 3,600 780 Climbing Indianapolis Center
07:07PM 40.0542 -83.1967 234° Southwest 109 125 4,000 840 Climbing Indianapolis Center
07:08PM 40.0481 -83.2131 244° Southwest 109 125 4,500 840 Climbing Indianapolis Center
07:08PM 40.0414 -83.2278 239° Southwest 105 121 4,800 780 Climbing Indianapolis Center
07:09PM 40.0331 -83.2458 239° Southwest 106 122 5,300 840 Climbing Indianapolis Center
07:09PM 40.0242 -83.2639 237° Southwest 104 120 5,800 660 Climbing Indianapolis Center
07:10PM 40.0186 -83.2786 244° Southwest 105 121 6,000 180 Climbing Indianapolis Center
07:10PM 40.0092 -83.3003 240° Southwest 137 158 6,000  Level Indianapolis Center
07:11PM 40.0006 -83.3197 240° Southwest 116 133 6,000 -120 Level Indianapolis Center
07:11PM 39.9869 -83.3467 237° Southwest 141 162 5,900  Descending Indianapolis Center
07:12PM 39.9803 -83.3664 246° West 134 154 6,000 60 Climbing Indianapolis Center
07:12PM 39.9717 -83.3856 240° Southwest 141 162 6,000  Level Indianapolis Center
07:13PM 39.9608 -83.4125 242° Southwest 141 162 6,000  Level Indianapolis Center
07:13PM 39.9514 -83.4347 241° Southwest 146 168 6,000  Level Indianapolis Center
07:14PM 39.9378 -83.4650 240° Southwest 143 165 6,000  Level Indianapolis Center
07:14PM 39.9311 -83.4814 242° Southwest 141 162 6,000  Level Indianapolis Center
07:15PM 39.9192 -83.5103 242° Southwest 143 165 6,000  Level Indianapolis Center
07:15PM 39.9133 -83.5253 243° Southwest 143 165 6,000 -120 Level Indianapolis Center
07:16PM 39.9006 -83.5561 242° Southwest 143 165 5,900 -360 Descending Indianapolis Center
07:16PM 39.8908 -83.5769 239° Southwest 148 170 5,600 -720 Descending Indianapolis Center
07:17PM 39.8786 -83.6042 240° Southwest 150 173 5,200 -720 Descending Indianapolis Center
07:17PM 39.8681 -83.6286 241° Southwest 168 193 4,900 -720 Descending Indianapolis Center
07:18PM 39.8553 -83.6583 241° Southwest 162 186 4,500 -600 Descending Indianapolis Center
07:18PM 39.8431 -83.6853 239° Southwest 167 192 4,300 -540 Descending Indianapolis Center
07:19PM 39.8300 -83.7103 236° Southwest 168 193 4,000 -300 Descending Indianapolis Center
07:19PM 39.8181 -83.7364 239° Southwest 164 189 4,000  Level Indianapolis Center
07:20PM 39.8011 -83.7678 235° Southwest 165 190 4,000  Level Indianapolis Center
07:20PM 39.7939 -83.7822 237° Southwest 154 177 4,000  Level Indianapolis Center
07:21PM 39.7789 -83.8156 240° Southwest 159 183 4,000  Level Indianapolis Center
07:21PM 39.7714 -83.8308 237° Southwest 151 174 4,000  Level Indianapolis Center
07:22PM 39.7586 -83.8622 242° Southwest 152 175 4,000  Level Indianapolis Center
07:22PM 39.7511 -83.8772 237° Southwest 150 173 4,000 -120 Level Indianapolis Center
07:23PM 39.7414 -83.9011 242° Southwest 150 173 3,900 -180 Descending Indianapolis Center